createdAt,value
2023-02-03T00:00:29.985Z,4.744568
2023-02-03T00:01:37.711Z,4.744568
2023-02-03T00:02:47.346Z,4.744568
2023-02-03T00:03:56.860Z,4.744568
2023-02-03T00:05:05.512Z,4.784851
2023-02-03T00:06:15.184Z,4.804993
2023-02-03T00:07:23.849Z,4.804993
2023-02-03T00:08:32.499Z,4.784851
2023-02-03T00:09:43.170Z,4.835205
2023-02-03T00:10:51.824Z,4.865417
2023-02-03T00:12:01.475Z,4.885559
2023-02-03T00:13:11.135Z,4.915771
2023-02-03T00:14:19.877Z,4.915771
2023-02-03T00:15:29.585Z,4.915771
2023-02-03T00:16:39.303Z,4.935913
2023-02-03T00:17:48.895Z,4.966125
2023-02-03T00:18:58.568Z,4.956055
2023-02-03T00:20:06.274Z,4.956055
2023-02-03T00:21:15.915Z,4.996338
2023-02-03T00:22:25.584Z,4.966125
2023-02-03T00:23:33.255Z,4.986267
2023-02-03T00:24:42.913Z,4.966125
2023-02-03T00:25:52.561Z,4.986267
2023-02-03T00:27:01.234Z,5.016479
2023-02-03T00:28:10.960Z,5.046692
2023-02-03T00:29:19.573Z,5.076904
2023-02-03T00:30:29.228Z,5.076904
2023-02-03T00:31:38.045Z,5.076904
2023-02-03T00:32:46.607Z,5.076904
2023-02-03T00:33:56.290Z,5.046692
2023-02-03T00:35:04.970Z,5.097046
2023-02-03T00:36:13.605Z,5.117188
2023-02-03T00:37:24.262Z,5.137329
2023-02-03T00:38:31.978Z,5.167542
2023-02-03T00:39:41.648Z,5.177612
2023-02-03T00:40:50.326Z,5.177612
2023-02-03T00:41:59.045Z,5.177612
2023-02-03T00:43:08.666Z,5.177612
2023-02-03T00:44:17.340Z,5.197754
2023-02-03T00:45:26.043Z,5.197754
2023-02-03T00:46:35.721Z,5.197754
2023-02-03T00:47:43.400Z,5.197754
2023-02-03T00:48:53.064Z,5.197754
2023-02-03T00:50:01.734Z,5.248108
2023-02-03T00:51:10.401Z,5.248108
2023-02-03T00:52:19.031Z,5.248108
2023-02-03T00:53:28.709Z,5.258179
2023-02-03T00:54:37.383Z,5.258179
2023-02-03T00:55:47.058Z,5.27832
2023-02-03T00:56:56.068Z,5.258179
2023-02-03T00:58:04.735Z,5.27832
2023-02-03T00:59:14.388Z,5.27832
2023-02-03T01:00:22.056Z,5.288391
2023-02-03T01:01:31.825Z,5.27832
2023-02-03T01:02:41.413Z,5.258179
2023-02-03T01:03:49.072Z,5.227966
2023-02-03T01:04:58.733Z,5.227966
2023-02-03T01:06:07.402Z,5.207825
2023-02-03T01:07:17.089Z,5.207825
2023-02-03T01:08:26.766Z,5.248108
2023-02-03T01:09:36.421Z,5.248108
2023-02-03T01:10:45.079Z,5.248108
2023-02-03T01:11:54.738Z,5.27832
2023-02-03T01:13:02.446Z,5.27832
2023-02-03T01:14:12.089Z,5.27832
2023-02-03T01:15:20.743Z,5.288391
2023-02-03T01:16:29.444Z,5.288391
2023-02-03T01:17:39.092Z,5.288391
2023-02-03T01:18:47.785Z,5.27832
2023-02-03T01:19:56.541Z,5.288391
2023-02-03T01:21:06.152Z,5.288391
2023-02-03T01:22:14.810Z,5.288391
2023-02-03T01:23:24.475Z,5.288391
2023-02-03T01:24:34.160Z,5.27832
2023-02-03T01:25:42.827Z,5.288391
2023-02-03T01:26:52.487Z,5.318604
2023-02-03T01:28:02.225Z,5.298462
2023-02-03T01:29:10.807Z,5.288391
2023-02-03T01:30:20.490Z,5.328674
2023-02-03T01:31:28.351Z,5.328674
2023-02-03T01:32:37.806Z,5.379028
2023-02-03T01:33:47.483Z,5.358887
2023-02-03T01:34:56.148Z,5.348816
2023-02-03T01:36:05.846Z,5.328674
2023-02-03T01:37:15.609Z,5.318604
2023-02-03T01:38:24.279Z,5.318604
2023-02-03T01:39:33.975Z,5.348816
2023-02-03T01:40:43.631Z,5.328674
2023-02-03T01:41:52.337Z,5.348816
2023-02-03T01:43:01.990Z,5.348816
2023-02-03T01:44:10.635Z,5.348816
2023-02-03T01:45:19.298Z,5.348816
2023-02-03T01:46:28.064Z,5.358887
2023-02-03T01:47:36.667Z,5.358887
2023-02-03T01:48:45.336Z,5.348816
2023-02-03T01:49:52.996Z,5.358887
2023-02-03T01:51:02.717Z,5.348816
2023-02-03T01:52:11.395Z,5.328674
2023-02-03T01:53:21.059Z,5.318604
2023-02-03T01:54:30.737Z,5.328674
2023-02-03T01:55:39.430Z,5.318604
2023-02-03T01:56:49.151Z,5.298462
2023-02-03T01:57:58.908Z,5.328674
2023-02-03T01:59:06.617Z,5.328674
2023-02-03T02:00:16.302Z,5.328674
2023-02-03T02:01:25.974Z,5.348816
2023-02-03T02:02:34.713Z,5.379028
2023-02-03T02:03:44.335Z,5.409241
2023-02-03T02:04:52.995Z,5.389099
2023-02-03T02:06:01.644Z,5.379028
2023-02-03T02:07:11.318Z,5.379028
2023-02-03T02:08:18.991Z,5.389099
2023-02-03T02:09:28.642Z,5.379028
2023-02-03T02:10:38.326Z,5.429382
2023-02-03T02:11:47.979Z,5.439453
2023-02-03T02:12:57.648Z,5.459595
2023-02-03T02:14:07.295Z,5.459595
2023-02-03T02:15:15.952Z,5.469666
2023-02-03T02:16:25.634Z,5.439453
2023-02-03T02:17:34.288Z,5.459595
2023-02-03T02:18:43.959Z,5.429382
2023-02-03T02:19:52.641Z,5.429382
2023-02-03T02:21:01.307Z,5.429382
2023-02-03T02:22:11.076Z,5.429382
2023-02-03T02:23:18.762Z,5.409241
2023-02-03T02:24:26.432Z,5.439453
2023-02-03T02:25:36.061Z,5.439453
2023-02-03T02:26:43.723Z,5.439453
2023-02-03T02:27:53.407Z,5.459595
2023-02-03T02:29:02.072Z,5.439453
2023-02-03T02:30:10.756Z,5.439453
2023-02-03T02:31:20.552Z,5.429382
2023-02-03T02:32:27.124Z,5.439453
2023-02-03T02:33:35.796Z,5.469666
2023-02-03T02:34:45.478Z,5.469666
2023-02-03T02:35:54.157Z,5.459595
2023-02-03T02:37:03.808Z,5.479736
2023-02-03T02:38:12.467Z,5.469666
2023-02-03T02:39:21.136Z,5.469666
2023-02-03T02:40:30.825Z,5.499878
2023-02-03T02:41:40.457Z,5.499878
2023-02-03T02:42:49.126Z,5.499878
2023-02-03T02:43:58.804Z,5.499878
2023-02-03T02:45:06.529Z,5.499878
2023-02-03T02:46:15.192Z,5.499878
2023-02-03T02:47:23.871Z,5.540161
2023-02-03T02:48:31.525Z,5.560303
2023-02-03T02:49:41.177Z,5.570374
2023-02-03T02:50:50.863Z,5.610657
2023-02-03T02:51:58.518Z,5.590515
2023-02-03T02:53:08.183Z,5.590515
2023-02-03T02:54:16.826Z,5.590515
2023-02-03T02:55:24.618Z,5.570374
2023-02-03T02:56:34.180Z,5.590515
2023-02-03T02:57:43.837Z,5.570374
2023-02-03T02:58:52.493Z,5.590515
2023-02-03T03:00:02.203Z,5.590515
2023-02-03T03:01:09.973Z,5.570374
2023-02-03T03:02:19.572Z,5.560303
2023-02-03T03:03:28.263Z,5.560303
2023-02-03T03:04:36.997Z,5.53009
2023-02-03T03:05:46.600Z,5.560303
2023-02-03T03:06:55.259Z,5.560303
2023-02-03T03:08:03.919Z,5.560303
2023-02-03T03:09:13.579Z,5.560303
2023-02-03T03:10:23.248Z,5.540161
2023-02-03T03:11:32.920Z,5.540161
2023-02-03T03:12:41.598Z,5.540161
2023-02-03T03:13:50.286Z,5.509949
2023-02-03T03:14:59.962Z,5.499878
2023-02-03T03:16:09.672Z,5.479736
2023-02-03T03:17:18.253Z,5.509949
2023-02-03T03:18:27.923Z,5.540161
2023-02-03T03:19:35.592Z,5.570374
2023-02-03T03:20:45.243Z,5.570374
2023-02-03T03:21:53.898Z,5.560303
2023-02-03T03:23:01.556Z,5.560303
2023-02-03T03:24:11.223Z,5.560303
2023-02-03T03:25:18.933Z,5.560303
2023-02-03T03:26:28.558Z,5.610657
2023-02-03T03:27:38.295Z,5.610657
2023-02-03T03:28:47.968Z,5.640869
2023-02-03T03:29:58.205Z,5.620728
2023-02-03T03:31:07.039Z,5.620728
2023-02-03T03:32:16.648Z,5.620728
2023-02-03T03:33:26.307Z,5.640869
2023-02-03T03:34:34.974Z,5.640869
2023-02-03T03:35:43.608Z,5.65094
2023-02-03T03:36:53.348Z,5.681152
2023-02-03T03:38:02.022Z,5.661011
2023-02-03T03:39:11.705Z,5.691223
2023-02-03T03:40:20.379Z,5.711365
2023-02-03T03:41:29.035Z,5.661011
2023-02-03T03:42:38.762Z,5.661011
2023-02-03T03:43:46.397Z,5.681152
2023-02-03T03:44:55.101Z,5.65094
2023-02-03T03:46:04.769Z,5.661011
2023-02-03T03:47:13.416Z,5.661011
2023-02-03T03:48:23.126Z,5.661011
2023-02-03T03:49:32.784Z,5.65094
2023-02-03T03:50:40.464Z,5.65094
2023-02-03T03:51:50.138Z,5.65094
2023-02-03T03:52:58.817Z,5.640869
2023-02-03T03:54:07.520Z,5.661011
2023-02-03T03:55:16.154Z,5.661011
2023-02-03T03:56:24.809Z,5.681152
2023-02-03T03:57:34.466Z,5.681152
2023-02-03T03:58:43.127Z,5.681152
2023-02-03T03:59:51.806Z,5.681152
2023-02-03T04:01:01.687Z,5.681152
2023-02-03T04:02:11.341Z,5.661011
2023-02-03T04:03:19.827Z,5.711365
2023-02-03T04:04:29.477Z,5.711365
2023-02-03T04:05:38.157Z,5.721436
2023-02-03T04:06:47.816Z,5.711365
2023-02-03T04:07:56.464Z,5.711365
2023-02-03T04:09:04.114Z,5.691223
2023-02-03T04:10:13.821Z,5.691223
2023-02-03T04:11:23.523Z,5.691223
2023-02-03T04:12:33.213Z,5.681152
2023-02-03T04:13:42.882Z,5.661011
2023-02-03T04:14:51.547Z,5.640869
2023-02-03T04:16:01.325Z,5.640869
2023-02-03T04:17:10.932Z,5.610657
2023-02-03T04:18:20.562Z,5.620728
2023-02-03T04:19:30.232Z,5.620728
2023-02-03T04:20:38.912Z,5.661011
2023-02-03T04:21:48.564Z,5.681152
2023-02-03T04:22:58.259Z,5.681152
2023-02-03T04:24:05.925Z,5.65094
2023-02-03T04:25:15.576Z,5.65094
2023-02-03T04:26:24.234Z,5.640869
2023-02-03T04:27:32.896Z,5.610657
2023-02-03T04:28:42.564Z,5.590515
2023-02-03T04:29:51.248Z,5.610657
2023-02-03T04:31:00.970Z,5.620728
2023-02-03T04:32:11.154Z,5.640869
2023-02-03T04:33:18.831Z,5.620728
2023-02-03T04:34:28.538Z,5.65094
2023-02-03T04:35:37.216Z,5.640869
2023-02-03T04:36:45.883Z,5.65094
2023-02-03T04:37:55.546Z,5.65094
2023-02-03T04:39:03.220Z,5.681152
2023-02-03T04:40:11.952Z,5.681152
2023-02-03T04:41:21.610Z,5.681152
2023-02-03T04:42:30.260Z,5.661011
2023-02-03T04:43:39.946Z,5.661011
2023-02-03T04:44:49.608Z,5.65094
2023-02-03T04:45:59.401Z,5.640869
2023-02-03T04:47:08.960Z,5.620728
2023-02-03T04:48:17.612Z,5.610657
2023-02-03T04:49:26.334Z,5.620728
2023-02-03T04:50:35.975Z,5.610657
2023-02-03T04:51:45.693Z,5.610657
2023-02-03T04:52:54.338Z,5.590515
2023-02-03T04:54:04.005Z,5.620728
2023-02-03T04:55:13.676Z,5.620728
2023-02-03T04:56:23.327Z,5.640869
2023-02-03T04:57:33.062Z,5.661011
2023-02-03T04:58:40.717Z,5.65094
2023-02-03T04:59:50.376Z,5.65094
2023-02-03T05:00:59.116Z,5.620728
2023-02-03T05:02:07.764Z,5.620728
2023-02-03T05:03:17.488Z,5.620728
2023-02-03T05:04:27.092Z,5.65094
2023-02-03T05:05:35.790Z,5.640869
2023-02-03T05:06:45.435Z,5.620728
2023-02-03T05:07:53.107Z,5.610657
2023-02-03T05:09:02.800Z,5.620728
2023-02-03T05:10:11.459Z,5.620728
2023-02-03T05:11:19.109Z,5.610657
2023-02-03T05:12:28.775Z,5.590515
2023-02-03T05:13:37.467Z,5.590515
2023-02-03T05:14:46.134Z,5.620728
2023-02-03T05:15:55.838Z,5.640869
2023-02-03T05:17:04.498Z,5.661011
2023-02-03T05:18:14.165Z,5.711365
2023-02-03T05:19:22.814Z,5.731506
2023-02-03T05:20:30.479Z,5.721436
2023-02-03T05:21:40.187Z,5.731506
2023-02-03T05:22:49.832Z,5.721436
2023-02-03T05:23:58.512Z,5.711365
2023-02-03T05:25:08.205Z,5.711365
2023-02-03T05:26:15.880Z,5.711365
2023-02-03T05:27:24.546Z,5.691223
2023-02-03T05:28:34.249Z,5.691223
2023-02-03T05:29:41.917Z,5.691223
2023-02-03T05:30:51.660Z,5.711365
2023-02-03T05:32:01.371Z,5.731506
2023-02-03T05:33:10.023Z,5.751648
2023-02-03T05:34:19.715Z,5.761719
2023-02-03T05:35:27.425Z,5.751648
2023-02-03T05:36:37.096Z,5.731506
2023-02-03T05:37:45.831Z,5.691223
2023-02-03T05:38:55.481Z,5.711365
2023-02-03T05:40:05.198Z,5.661011
2023-02-03T05:41:12.856Z,5.65094
2023-02-03T05:42:21.525Z,5.65094
2023-02-03T05:43:31.259Z,5.661011
2023-02-03T05:44:40.928Z,5.681152
2023-02-03T05:45:49.623Z,5.691223
2023-02-03T05:46:59.310Z,5.681152
2023-02-03T05:48:07.996Z,5.681152
2023-02-03T05:49:17.676Z,5.661011
2023-02-03T05:50:25.611Z,5.661011
2023-02-03T05:51:34.028Z,5.681152
2023-02-03T05:52:43.701Z,5.661011
2023-02-03T05:53:53.411Z,5.691223
2023-02-03T05:55:03.087Z,5.711365
2023-02-03T05:56:11.789Z,5.691223
2023-02-03T05:57:21.451Z,5.681152
2023-02-03T05:58:32.120Z,5.681152
2023-02-03T05:59:39.839Z,5.691223
2023-02-03T06:00:48.627Z,5.681152
2023-02-03T06:01:58.350Z,5.661011
2023-02-03T06:03:06.075Z,5.661011
2023-02-03T06:04:15.861Z,5.65094
2023-02-03T06:05:24.598Z,5.620728
2023-02-03T06:06:32.349Z,5.640869
2023-02-03T06:07:42.053Z,5.620728
2023-02-03T06:08:50.854Z,5.620728
2023-02-03T06:09:59.549Z,5.620728
2023-02-03T06:11:10.205Z,5.640869
2023-02-03T06:12:18.883Z,5.65094
2023-02-03T06:13:28.571Z,5.620728
2023-02-03T06:14:37.259Z,5.610657
2023-02-03T06:15:45.975Z,5.590515
2023-02-03T06:16:55.703Z,5.560303
2023-02-03T06:18:03.363Z,5.560303
2023-02-03T06:19:11.030Z,5.560303
2023-02-03T06:20:20.832Z,5.53009
2023-02-03T06:21:28.568Z,5.560303
2023-02-03T06:22:38.208Z,5.570374
2023-02-03T06:23:46.919Z,5.590515
2023-02-03T06:24:54.653Z,5.620728
2023-02-03T06:26:04.426Z,5.620728
2023-02-03T06:27:14.067Z,5.610657
2023-02-03T06:28:22.929Z,5.590515
2023-02-03T06:29:31.536Z,5.610657
2023-02-03T06:30:41.326Z,5.590515
2023-02-03T06:31:51.104Z,5.570374
2023-02-03T06:33:00.600Z,5.590515
2023-02-03T06:34:08.268Z,5.640869
2023-02-03T06:35:17.977Z,5.661011
2023-02-03T06:36:26.629Z,5.661011
2023-02-03T06:37:35.311Z,5.661011
2023-02-03T06:38:44.004Z,5.640869
2023-02-03T06:39:52.673Z,5.620728
2023-02-03T06:41:01.449Z,5.590515
2023-02-03T06:42:10.151Z,5.610657
2023-02-03T06:43:18.839Z,5.640869
2023-02-03T06:44:28.508Z,5.681152
2023-02-03T06:45:38.166Z,5.691223
2023-02-03T06:46:46.916Z,5.681152
2023-02-03T06:47:56.622Z,5.681152
2023-02-03T06:49:06.414Z,5.65094
2023-02-03T06:50:15.169Z,5.640869
2023-02-03T06:51:24.851Z,5.610657
2023-02-03T06:52:32.512Z,5.610657
2023-02-03T06:53:41.176Z,5.640869
2023-02-03T06:54:50.890Z,5.640869
2023-02-03T06:56:00.544Z,5.640869
2023-02-03T06:57:10.272Z,5.640869
2023-02-03T06:58:20.025Z,5.620728
2023-02-03T06:59:28.673Z,5.590515
2023-02-03T07:00:38.355Z,5.570374
2023-02-03T07:01:47.076Z,5.570374
2023-02-03T07:02:55.779Z,5.570374
2023-02-03T07:04:05.463Z,5.570374
2023-02-03T07:05:14.113Z,5.560303
2023-02-03T07:06:23.784Z,5.560303
2023-02-03T07:07:33.475Z,5.570374
2023-02-03T07:08:42.155Z,5.570374
2023-02-03T07:09:51.834Z,5.590515
2023-02-03T07:10:59.508Z,5.570374
2023-02-03T07:12:09.171Z,5.590515
2023-02-03T07:13:18.841Z,5.570374
2023-02-03T07:14:27.521Z,5.570374
2023-02-03T07:15:37.283Z,5.590515
2023-02-03T07:16:46.957Z,5.620728
2023-02-03T07:17:55.627Z,5.620728
2023-02-03T07:19:05.305Z,5.640869
2023-02-03T07:20:14.999Z,5.640869
2023-02-03T07:21:23.677Z,5.640869
2023-02-03T07:22:33.349Z,5.65094
2023-02-03T07:23:42.026Z,5.661011
2023-02-03T07:24:50.678Z,5.691223
2023-02-03T07:26:00.406Z,5.711365
2023-02-03T07:27:08.164Z,5.721436
2023-02-03T07:28:17.907Z,5.751648
2023-02-03T07:29:26.532Z,5.751648
2023-02-03T07:30:35.241Z,5.731506
2023-02-03T07:31:45.152Z,5.731506
2023-02-03T07:32:53.714Z,5.731506
2023-02-03T07:34:03.372Z,5.731506
2023-02-03T07:35:12.182Z,5.751648
2023-02-03T07:36:19.828Z,5.761719
2023-02-03T07:37:29.489Z,5.731506
2023-02-03T07:38:38.266Z,5.791931
2023-02-03T07:39:46.833Z,5.802002
2023-02-03T07:40:56.505Z,5.822144
2023-02-03T07:42:05.225Z,5.822144
2023-02-03T07:43:14.882Z,5.832214
2023-02-03T07:44:23.610Z,5.832214
2023-02-03T07:45:31.270Z,5.862427
2023-02-03T07:46:41.043Z,5.872498
2023-02-03T07:47:50.653Z,5.90271
2023-02-03T07:49:00.331Z,5.892639
2023-02-03T07:50:10.050Z,5.932922
2023-02-03T07:51:18.743Z,5.932922
2023-02-03T07:52:28.399Z,5.942993
2023-02-03T07:53:36.098Z,5.983276
2023-02-03T07:54:44.782Z,5.993347
2023-02-03T07:55:54.533Z,6.013489
2023-02-03T07:57:04.176Z,6.053772
2023-02-03T07:58:13.850Z,6.043701
2023-02-03T07:59:23.553Z,6.053772
2023-02-03T08:00:32.265Z,6.073914
2023-02-03T08:01:41.995Z,6.094055
2023-02-03T08:02:51.634Z,6.114197
2023-02-03T08:04:01.315Z,6.144409
2023-02-03T08:05:11.069Z,6.174622
2023-02-03T08:06:18.825Z,6.204834
2023-02-03T08:07:28.497Z,6.235046
2023-02-03T08:08:38.498Z,6.235046
2023-02-03T08:09:47.223Z,6.235046
2023-02-03T08:10:56.909Z,6.255188
2023-02-03T08:12:05.578Z,6.235046
2023-02-03T08:13:15.273Z,6.265259
2023-02-03T08:14:25.201Z,6.265259
2023-02-03T08:15:33.866Z,6.27533
2023-02-03T08:16:43.564Z,6.305542
2023-02-03T08:17:53.254Z,6.325684
2023-02-03T08:19:02.009Z,6.345825
2023-02-03T08:20:11.619Z,6.355896
2023-02-03T08:21:20.319Z,6.386108
2023-02-03T08:22:30.991Z,6.40625
2023-02-03T08:23:40.704Z,6.40625
2023-02-03T08:24:50.419Z,6.416321
2023-02-03T08:26:00.120Z,6.436462
2023-02-03T08:27:09.796Z,6.436462
2023-02-03T08:28:17.512Z,6.446533
2023-02-03T08:29:27.179Z,6.486816
2023-02-03T08:30:35.819Z,6.506958
2023-02-03T08:31:44.640Z,6.53717
2023-02-03T08:32:54.213Z,6.557312
2023-02-03T08:34:03.867Z,6.567383
2023-02-03T08:35:13.586Z,6.567383
2023-02-03T08:36:23.331Z,6.557312
2023-02-03T08:37:32.077Z,6.587524
2023-02-03T08:38:41.732Z,6.597595
2023-02-03T08:39:50.441Z,6.617737
2023-02-03T08:41:00.139Z,6.617737
2023-02-03T08:42:09.821Z,6.637878
2023-02-03T08:43:18.503Z,6.637878
2023-02-03T08:44:27.194Z,6.637878
2023-02-03T08:45:35.925Z,6.637878
2023-02-03T08:46:45.537Z,6.637878
2023-02-03T08:47:54.276Z,6.637878
2023-02-03T08:49:03.926Z,6.627808
2023-02-03T08:50:13.639Z,6.617737
2023-02-03T08:51:22.397Z,6.65802
2023-02-03T08:52:32.114Z,6.637878
2023-02-03T08:53:41.835Z,6.637878
2023-02-03T08:54:49.492Z,6.637878
2023-02-03T08:55:59.197Z,6.637878
2023-02-03T08:57:08.851Z,6.668091
2023-02-03T08:58:16.516Z,6.688232
2023-02-03T08:59:25.245Z,6.698303
2023-02-03T09:00:34.922Z,6.718445
2023-02-03T09:01:43.579Z,6.718445
2023-02-03T09:02:52.247Z,6.738586
2023-02-03T09:04:00.979Z,6.718445
2023-02-03T09:05:10.746Z,6.768799
2023-02-03T09:06:21.344Z,6.748657
2023-02-03T09:07:28.128Z,6.77887
2023-02-03T09:08:37.803Z,6.768799
2023-02-03T09:09:47.449Z,6.77887
2023-02-03T09:10:57.202Z,6.77887
2023-02-03T09:12:06.847Z,6.809082
2023-02-03T09:13:15.529Z,6.78894
2023-02-03T09:14:25.201Z,6.839294
2023-02-03T09:15:34.866Z,6.839294
2023-02-03T09:16:43.662Z,6.839294
2023-02-03T09:17:53.271Z,6.869507
2023-02-03T09:19:02.941Z,6.869507
2023-02-03T09:20:12.725Z,6.869507
2023-02-03T09:21:32.452Z,6.849365
2023-02-03T09:22:33.162Z,6.869507
2023-02-03T09:23:41.816Z,6.879578
2023-02-03T09:24:51.587Z,6.869507
2023-02-03T09:26:00.154Z,6.879578
2023-02-03T09:27:08.876Z,6.879578
2023-02-03T09:28:18.598Z,6.889648
2023-02-03T09:29:27.294Z,6.950073
2023-02-03T09:30:37.018Z,6.960144
2023-02-03T09:31:45.636Z,6.970215
2023-02-03T09:32:54.316Z,7.000427
2023-02-03T09:34:04.008Z,6.990356
2023-02-03T09:35:12.662Z,7.020569
2023-02-03T09:36:21.390Z,7.020569
2023-02-03T09:37:31.045Z,7.000427
2023-02-03T09:38:40.747Z,7.050781
2023-02-03T09:39:50.422Z,7.060852
2023-02-03T09:41:09.483Z,7.060852
2023-02-03T09:42:08.778Z,7.101135
2023-02-03T09:43:18.462Z,7.111206
2023-02-03T09:44:27.152Z,7.101135
2023-02-03T09:45:36.910Z,7.111206
2023-02-03T09:46:46.512Z,7.131348
2023-02-03T09:47:54.199Z,7.171631
2023-02-03T09:49:03.939Z,7.171631
2023-02-03T09:50:12.624Z,7.201843
2023-02-03T09:51:21.370Z,7.232056
2023-02-03T09:52:31.054Z,7.242126
2023-02-03T09:53:38.724Z,7.242126
2023-02-03T09:54:47.421Z,7.29248
2023-02-03T09:55:57.124Z,7.29248
2023-02-03T09:57:05.813Z,7.312622
2023-02-03T09:58:15.472Z,7.29248
2023-02-03T09:59:25.157Z,7.312622
2023-02-03T10:00:32.818Z,7.322693
2023-02-03T10:01:42.668Z,7.362976
2023-02-03T10:02:52.332Z,7.393188
2023-02-03T10:04:00.878Z,7.403259
2023-02-03T10:05:10.593Z,7.423401
2023-02-03T10:06:19.309Z,7.423401
2023-02-03T10:07:29.030Z,7.423401
2023-02-03T10:08:38.747Z,7.453613
2023-02-03T10:09:47.595Z,7.453613
2023-02-03T10:10:57.343Z,7.473755
2023-02-03T10:12:05.973Z,7.453613
2023-02-03T10:13:15.668Z,7.453613
2023-02-03T10:14:25.366Z,7.473755
2023-02-03T10:15:33.029Z,7.503967
2023-02-03T10:16:42.735Z,7.514038
2023-02-03T10:17:52.399Z,7.514038
2023-02-03T10:19:03.233Z,7.503967
2023-02-03T10:20:10.853Z,7.453613
2023-02-03T10:21:18.511Z,7.423401
2023-02-03T10:22:28.211Z,7.423401
2023-02-03T10:23:37.854Z,7.433472
2023-02-03T10:24:46.547Z,7.473755
2023-02-03T10:25:57.640Z,7.423401
2023-02-03T10:27:06.152Z,7.403259
2023-02-03T10:28:15.742Z,7.403259
2023-02-03T10:29:25.332Z,7.403259
2023-02-03T10:30:33.406Z,7.423401
2023-02-03T10:31:42.878Z,7.403259
2023-02-03T10:32:52.411Z,7.403259
2023-02-03T10:34:00.140Z,7.483826
2023-02-03T10:35:09.788Z,7.503967
2023-02-03T10:36:18.447Z,7.514038
2023-02-03T10:37:30.000Z,7.54425
2023-02-03T10:38:37.910Z,7.564392
2023-02-03T10:39:46.570Z,7.53418
2023-02-03T10:40:56.310Z,7.53418
2023-02-03T10:42:05.935Z,7.53418
2023-02-03T10:43:14.617Z,7.53418
2023-02-03T10:44:24.282Z,7.54425
2023-02-03T10:45:32.953Z,7.574463
2023-02-03T10:46:41.704Z,7.614746
2023-02-03T10:47:51.368Z,7.614746
2023-02-03T10:49:01.126Z,7.604675
2023-02-03T10:50:10.917Z,7.54425
2023-02-03T10:51:20.575Z,7.584534
2023-02-03T10:52:29.253Z,7.614746
2023-02-03T10:53:38.907Z,7.685242
2023-02-03T10:54:47.613Z,7.755737
2023-02-03T10:55:55.293Z,7.725525
2023-02-03T10:57:04.005Z,7.715454
2023-02-03T10:58:12.707Z,7.634888
2023-02-03T10:59:21.373Z,7.574463
2023-02-03T11:00:31.147Z,7.574463
2023-02-03T11:01:39.766Z,7.584534
2023-02-03T11:02:49.517Z,7.614746
2023-02-03T11:03:59.204Z,7.634888
2023-02-03T11:05:06.867Z,7.574463
2023-02-03T11:06:16.572Z,7.574463
2023-02-03T11:07:24.243Z,7.614746
2023-02-03T11:08:32.898Z,7.634888
2023-02-03T11:09:42.562Z,7.614746
2023-02-03T11:10:50.234Z,7.634888
2023-02-03T11:11:59.989Z,7.6651
2023-02-03T11:13:09.673Z,7.695312
2023-02-03T11:14:17.340Z,7.745667
2023-02-03T11:15:27.341Z,7.796021
2023-02-03T11:16:39.237Z,7.78595
2023-02-03T11:17:46.470Z,7.78595
2023-02-03T11:18:56.146Z,7.816162
2023-02-03T11:20:05.820Z,7.816162
2023-02-03T11:21:13.491Z,7.816162
2023-02-03T11:22:23.176Z,7.816162
2023-02-03T11:23:30.918Z,7.846375
2023-02-03T11:24:39.606Z,7.866516
2023-02-03T11:25:49.294Z,7.796021
2023-02-03T11:26:57.963Z,7.846375
2023-02-03T11:28:07.732Z,7.866516
2023-02-03T11:29:16.414Z,7.846375
2023-02-03T11:30:26.229Z,7.846375
2023-02-03T11:31:36.204Z,7.846375
2023-02-03T11:32:45.463Z,7.876587
2023-02-03T11:33:54.138Z,7.866516
2023-02-03T11:35:03.885Z,7.876587
2023-02-03T11:36:12.557Z,7.866516
2023-02-03T11:37:22.260Z,7.876587
2023-02-03T11:38:30.925Z,7.876587
2023-02-03T11:39:38.589Z,7.896729
2023-02-03T11:40:48.311Z,7.896729
2023-02-03T11:41:56.997Z,7.876587
2023-02-03T11:43:06.669Z,7.896729
2023-02-03T11:44:16.336Z,7.906799
2023-02-03T11:45:25.033Z,7.926941
2023-02-03T11:46:34.819Z,7.937012
2023-02-03T11:47:44.403Z,8.027649
2023-02-03T11:48:54.036Z,8.078003
2023-02-03T11:50:03.727Z,8.118286
2023-02-03T11:51:12.395Z,8.098145
2023-02-03T11:52:22.171Z,8.078003
2023-02-03T11:53:31.842Z,8.057861
2023-02-03T11:54:42.488Z,7.997437
2023-02-03T11:55:53.157Z,8.007507
2023-02-03T11:57:02.837Z,8.088074
2023-02-03T11:58:12.533Z,8.118286
2023-02-03T11:59:22.217Z,8.188782
2023-02-03T12:00:30.135Z,8.229065
2023-02-03T12:01:38.560Z,8.188782
2023-02-03T12:02:48.372Z,8.188782
2023-02-03T12:03:56.951Z,8.158569
2023-02-03T12:05:06.640Z,8.088074
2023-02-03T12:06:16.396Z,8.088074
2023-02-03T12:07:25.042Z,8.098145
2023-02-03T12:08:34.719Z,8.118286
2023-02-03T12:09:42.389Z,8.118286
2023-02-03T12:10:51.064Z,8.078003
2023-02-03T12:12:00.783Z,8.047791
2023-02-03T12:13:08.440Z,7.997437
2023-02-03T12:14:18.103Z,8.027649
2023-02-03T12:15:26.831Z,8.047791
2023-02-03T12:16:34.617Z,8.047791
2023-02-03T12:17:44.298Z,8.047791
2023-02-03T12:18:53.041Z,8.057861
2023-02-03T12:20:01.659Z,8.047791
2023-02-03T12:21:11.364Z,8.047791
2023-02-03T12:22:18.011Z,8.088074
2023-02-03T12:23:27.722Z,8.088074
2023-02-03T12:24:36.436Z,8.078003
2023-02-03T12:25:44.155Z,8.078003
2023-02-03T12:26:53.899Z,8.078003
2023-02-03T12:28:01.687Z,8.078003
2023-02-03T12:29:12.232Z,8.057861
2023-02-03T12:30:21.896Z,8.027649
2023-02-03T12:31:30.628Z,7.997437
2023-02-03T12:32:40.277Z,8.007507
2023-02-03T12:33:49.008Z,8.027649
2023-02-03T12:34:58.723Z,8.007507
2023-02-03T12:36:08.392Z,8.047791
2023-02-03T12:37:17.050Z,8.057861
2023-02-03T12:38:26.740Z,8.057861
2023-02-03T12:39:36.436Z,8.078003
2023-02-03T12:40:44.109Z,8.057861
2023-02-03T12:41:53.786Z,8.057861
2023-02-03T12:43:02.465Z,8.047791
2023-02-03T12:44:11.188Z,8.047791
2023-02-03T12:45:21.032Z,8.027649
2023-02-03T12:46:29.724Z,8.047791
2023-02-03T12:47:39.436Z,8.078003
2023-02-03T12:48:50.122Z,8.078003
2023-02-03T12:49:57.820Z,8.078003
2023-02-03T12:51:07.534Z,8.047791
2023-02-03T12:52:17.207Z,8.047791
2023-02-03T12:53:24.927Z,8.078003
2023-02-03T12:54:34.564Z,8.078003
2023-02-03T12:55:44.298Z,8.088074
2023-02-03T12:56:52.978Z,8.128357
2023-02-03T12:58:02.719Z,8.098145
2023-02-03T12:59:11.396Z,8.088074
2023-02-03T13:00:21.072Z,8.088074
2023-02-03T13:01:29.839Z,8.088074
2023-02-03T13:02:39.483Z,8.057861
2023-02-03T13:03:49.186Z,8.057861
2023-02-03T13:04:57.843Z,7.997437
2023-02-03T13:06:07.488Z,7.977295
2023-02-03T13:07:17.340Z,7.997437
2023-02-03T13:08:25.861Z,8.007507
2023-02-03T13:09:35.552Z,8.027649
2023-02-03T13:10:44.299Z,7.967224
2023-02-03T13:11:53.948Z,7.977295
2023-02-03T13:13:03.648Z,7.947083
2023-02-03T13:14:11.330Z,7.997437
2023-02-03T13:15:21.017Z,7.997437
2023-02-03T13:16:29.744Z,7.937012
2023-02-03T13:17:39.381Z,7.926941
2023-02-03T13:18:48.190Z,7.876587
2023-02-03T13:19:57.893Z,7.896729
2023-02-03T13:21:06.546Z,7.876587
2023-02-03T13:22:15.189Z,7.876587
2023-02-03T13:23:24.919Z,7.826233
2023-02-03T13:24:34.565Z,7.826233
2023-02-03T13:25:44.224Z,7.826233
2023-02-03T13:26:52.887Z,7.816162
2023-02-03T13:28:01.625Z,7.765808
2023-02-03T13:29:11.240Z,7.725525
2023-02-03T13:30:19.009Z,7.725525
2023-02-03T13:31:27.819Z,7.725525
2023-02-03T13:32:37.299Z,7.725525
2023-02-03T13:33:46.046Z,7.745667